sensor_id;sensor_type;location;lat;lon;timestamp;P1;durP1;ratioP1;P2;durP2;ratioP2
6531;SDS011;3299;42.004;24.868;2024-01-16T00:00:54;39.15;;;19.90;;
6531;SDS011;3299;42.004;24.868;2024-01-16T00:03:19;31.05;;;19.77;;
6531;SDS011;3299;42.004;24.868;2024-01-16T00:05:44;31.55;;;18.10;;
6531;SDS011;3299;42.004;24.868;2024-01-16T00:08:10;28.15;;;17.42;;
6531;SDS011;3299;42.004;24.868;2024-01-16T00:10:35;25.88;;;15.55;;
6531;SDS011;3299;42.004;24.868;2024-01-16T00:13:01;27.88;;;16.60;;
6531;SDS011;3299;42.004;24.868;2024-01-16T00:15:26;27.73;;;16.27;;
6531;SDS011;3299;42.004;24.868;2024-01-16T00:17:52;25.13;;;15.20;;
6531;SDS011;3299;42.004;24.868;2024-01-16T00:20:18;23.88;;;14.25;;
6531;SDS011;3299;42.004;24.868;2024-01-16T00:22:44;23.52;;;14.07;;
6531;SDS011;3299;42.004;24.868;2024-01-16T00:25:09;22.83;;;13.82;;
6531;SDS011;3299;42.004;24.868;2024-01-16T00:27:36;21.77;;;14.02;;
6531;SDS011;3299;42.004;24.868;2024-01-16T00:30:01;24.02;;;13.68;;
6531;SDS011;3299;42.004;24.868;2024-01-16T00:32:27;23.25;;;14.27;;
6531;SDS011;3299;42.004;24.868;2024-01-16T00:34:52;21.00;;;12.48;;
6531;SDS011;3299;42.004;24.868;2024-01-16T00:37:17;18.70;;;12.85;;
6531;SDS011;3299;42.004;24.868;2024-01-16T00:39:43;17.20;;;11.25;;
6531;SDS011;3299;42.004;24.868;2024-01-16T00:42:08;21.00;;;11.80;;
6531;SDS011;3299;42.004;24.868;2024-01-16T00:44:34;29.80;;;14.55;;
6531;SDS011;3299;42.004;24.868;2024-01-16T00:47:00;21.13;;;12.75;;
6531;SDS011;3299;42.004;24.868;2024-01-16T00:49:27;23.02;;;13.35;;
6531;SDS011;3299;42.004;24.868;2024-01-16T00:51:53;20.85;;;11.68;;
6531;SDS011;3299;42.004;24.868;2024-01-16T00:54:18;16.60;;;11.02;;
6531;SDS011;3299;42.004;24.868;2024-01-16T00:56:44;17.27;;;11.35;;
6531;SDS011;3299;42.004;24.868;2024-01-16T00:59:09;15.95;;;10.93;;
6531;SDS011;3299;42.004;24.868;2024-01-16T01:01:37;15.10;;;10.30;;
6531;SDS011;3299;42.004;24.868;2024-01-16T01:04:03;20.95;;;11.75;;
6531;SDS011;3299;42.004;24.868;2024-01-16T01:06:28;17.45;;;11.88;;
6531;SDS011;3299;42.004;24.868;2024-01-16T01:08:53;23.83;;;13.90;;
6531;SDS011;3299;42.004;24.868;2024-01-16T01:11:19;21.33;;;13.63;;
6531;SDS011;3299;42.004;24.868;2024-01-16T01:13:44;24.35;;;15.38;;
6531;SDS011;3299;42.004;24.868;2024-01-16T01:16:10;25.85;;;14.95;;
6531;SDS011;3299;42.004;24.868;2024-01-16T01:18:35;28.13;;;15.68;;
6531;SDS011;3299;42.004;24.868;2024-01-16T01:21:01;28.67;;;16.98;;
6531;SDS011;3299;42.004;24.868;2024-01-16T01:23:26;29.90;;;16.83;;
6531;SDS011;3299;42.004;24.868;2024-01-16T01:25:52;30.67;;;18.23;;
6531;SDS011;3299;42.004;24.868;2024-01-16T01:28:17;32.85;;;17.83;;
6531;SDS011;3299;42.004;24.868;2024-01-16T01:30:42;30.77;;;17.50;;
6531;SDS011;3299;42.004;24.868;2024-01-16T01:33:08;28.10;;;17.05;;
6531;SDS011;3299;42.004;24.868;2024-01-16T01:35:33;26.95;;;15.68;;
6531;SDS011;3299;42.004;24.868;2024-01-16T01:37:59;28.33;;;16.67;;
6531;SDS011;3299;42.004;24.868;2024-01-16T01:40:24;25.98;;;16.73;;
6531;SDS011;3299;42.004;24.868;2024-01-16T01:42:50;31.90;;;17.10;;
6531;SDS011;3299;42.004;24.868;2024-01-16T01:45:15;33.80;;;16.25;;
6531;SDS011;3299;42.004;24.868;2024-01-16T01:47:41;26.67;;;16.27;;
6531;SDS011;3299;42.004;24.868;2024-01-16T01:50:09;26.48;;;16.25;;
6531;SDS011;3299;42.004;24.868;2024-01-16T01:52:36;29.67;;;17.05;;
6531;SDS011;3299;42.004;24.868;2024-01-16T01:55:04;28.13;;;16.80;;
6531;SDS011;3299;42.004;24.868;2024-01-16T01:57:33;29.52;;;15.90;;
6531;SDS011;3299;42.004;24.868;2024-01-16T01:59:59;22.08;;;14.50;;
6531;SDS011;3299;42.004;24.868;2024-01-16T02:02:25;22.08;;;14.10;;
6531;SDS011;3299;42.004;24.868;2024-01-16T02:04:52;19.67;;;12.40;;
6531;SDS011;3299;42.004;24.868;2024-01-16T02:07:17;11.82;;;8.10;;
6531;SDS011;3299;42.004;24.868;2024-01-16T02:09:43;26.60;;;14.55;;
6531;SDS011;3299;42.004;24.868;2024-01-16T02:12:09;28.05;;;16.13;;
6531;SDS011;3299;42.004;24.868;2024-01-16T02:14:34;23.92;;;13.93;;
6531;SDS011;3299;42.004;24.868;2024-01-16T02:17:00;27.67;;;15.07;;
6531;SDS011;3299;42.004;24.868;2024-01-16T02:19:25;20.77;;;12.43;;
6531;SDS011;3299;42.004;24.868;2024-01-16T02:21:51;20.95;;;12.68;;
6531;SDS011;3299;42.004;24.868;2024-01-16T02:24:19;21.35;;;12.73;;
6531;SDS011;3299;42.004;24.868;2024-01-16T02:26:46;23.35;;;12.63;;
6531;SDS011;3299;42.004;24.868;2024-01-16T02:29:12;16.10;;;12.52;;
6531;SDS011;3299;42.004;24.868;2024-01-16T02:31:38;21.20;;;12.00;;
6531;SDS011;3299;42.004;24.868;2024-01-16T02:34:03;19.15;;;12.02;;
6531;SDS011;3299;42.004;24.868;2024-01-16T02:36:29;19.50;;;12.75;;
6531;SDS011;3299;42.004;24.868;2024-01-16T02:38:54;20.60;;;12.60;;
6531;SDS011;3299;42.004;24.868;2024-01-16T02:41:20;23.65;;;13.15;;
6531;SDS011;3299;42.004;24.868;2024-01-16T02:43:46;21.02;;;13.13;;
6531;SDS011;3299;42.004;24.868;2024-01-16T02:46:12;19.13;;;12.43;;
6531;SDS011;3299;42.004;24.868;2024-01-16T02:48:38;17.77;;;11.57;;
6531;SDS011;3299;42.004;24.868;2024-01-16T02:51:04;18.40;;;11.93;;
6531;SDS011;3299;42.004;24.868;2024-01-16T02:53:30;18.45;;;11.82;;
6531;SDS011;3299;42.004;24.868;2024-01-16T02:55:56;16.17;;;11.07;;
6531;SDS011;3299;42.004;24.868;2024-01-16T02:58:28;17.02;;;11.82;;
6531;SDS011;3299;42.004;24.868;2024-01-16T03:00:54;16.30;;;10.63;;
6531;SDS011;3299;42.004;24.868;2024-01-16T03:03:20;18.67;;;11.60;;
6531;SDS011;3299;42.004;24.868;2024-01-16T03:05:46;17.67;;;11.23;;
6531;SDS011;3299;42.004;24.868;2024-01-16T03:08:12;15.88;;;11.07;;
6531;SDS011;3299;42.004;24.868;2024-01-16T03:10:37;17.92;;;10.88;;
6531;SDS011;3299;42.004;24.868;2024-01-16T03:13:03;16.15;;;10.85;;
6531;SDS011;3299;42.004;24.868;2024-01-16T03:15:29;14.75;;;10.63;;
6531;SDS011;3299;42.004;24.868;2024-01-16T03:17:57;17.80;;;10.35;;
6531;SDS011;3299;42.004;24.868;2024-01-16T03:20:23;15.63;;;9.70;;
6531;SDS011;3299;42.004;24.868;2024-01-16T03:22:49;17.70;;;9.82;;
6531;SDS011;3299;42.004;24.868;2024-01-16T03:25:15;14.70;;;9.93;;
6531;SDS011;3299;42.004;24.868;2024-01-16T03:27:41;15.45;;;9.80;;
6531;SDS011;3299;42.004;24.868;2024-01-16T03:30:07;14.23;;;8.73;;
6531;SDS011;3299;42.004;24.868;2024-01-16T03:32:33;13.43;;;8.40;;
6531;SDS011;3299;42.004;24.868;2024-01-16T03:34:59;10.98;;;6.30;;
6531;SDS011;3299;42.004;24.868;2024-01-16T03:37:25;8.00;;;5.80;;
6531;SDS011;3299;42.004;24.868;2024-01-16T03:39:50;5.00;;;4.07;;
6531;SDS011;3299;42.004;24.868;2024-01-16T03:42:16;4.53;;;3.38;;
6531;SDS011;3299;42.004;24.868;2024-01-16T03:44:41;3.88;;;3.45;;
6531;SDS011;3299;42.004;24.868;2024-01-16T03:47:07;3.40;;;3.10;;
6531;SDS011;3299;42.004;24.868;2024-01-16T03:49:33;3.40;;;3.10;;
6531;SDS011;3299;42.004;24.868;2024-01-16T03:51:59;5.68;;;3.80;;
6531;SDS011;3299;42.004;24.868;2024-01-16T03:54:25;3.97;;;3.58;;
6531;SDS011;3299;42.004;24.868;2024-01-16T03:56:50;4.78;;;3.95;;
6531;SDS011;3299;42.004;24.868;2024-01-16T03:59:16;5.43;;;3.92;;
6531;SDS011;3299;42.004;24.868;2024-01-16T04:01:42;4.68;;;4.05;;
6531;SDS011;3299;42.004;24.868;2024-01-16T04:04:09;5.72;;;5.13;;
6531;SDS011;3299;42.004;24.868;2024-01-16T04:06:35;4.18;;;3.78;;
6531;SDS011;3299;42.004;24.868;2024-01-16T04:09:01;5.63;;;4.28;;
6531;SDS011;3299;42.004;24.868;2024-01-16T04:11:27;5.38;;;4.40;;
6531;SDS011;3299;42.004;24.868;2024-01-16T04:13:53;6.60;;;4.90;;
6531;SDS011;3299;42.004;24.868;2024-01-16T04:16:19;6.38;;;4.75;;
6531;SDS011;3299;42.004;24.868;2024-01-16T04:18:44;8.60;;;5.30;;
6531;SDS011;3299;42.004;24.868;2024-01-16T04:21:09;6.10;;;5.00;;
6531;SDS011;3299;42.004;24.868;2024-01-16T04:23:36;7.75;;;5.65;;
6531;SDS011;3299;42.004;24.868;2024-01-16T04:26:01;9.23;;;5.80;;
6531;SDS011;3299;42.004;24.868;2024-01-16T04:28:27;9.50;;;5.10;;
6531;SDS011;3299;42.004;24.868;2024-01-16T04:30:53;9.75;;;6.57;;
6531;SDS011;3299;42.004;24.868;2024-01-16T04:33:18;7.85;;;5.82;;
6531;SDS011;3299;42.004;24.868;2024-01-16T04:35:44;8.60;;;7.35;;
6531;SDS011;3299;42.004;24.868;2024-01-16T04:38:10;11.80;;;6.70;;
6531;SDS011;3299;42.004;24.868;2024-01-16T04:40:35;8.95;;;6.07;;
6531;SDS011;3299;42.004;24.868;2024-01-16T04:43:00;12.45;;;7.38;;
6531;SDS011;3299;42.004;24.868;2024-01-16T04:45:27;14.98;;;9.43;;
6531;SDS011;3299;42.004;24.868;2024-01-16T04:47:53;10.85;;;7.72;;
6531;SDS011;3299;42.004;24.868;2024-01-16T04:50:18;10.60;;;7.13;;
6531;SDS011;3299;42.004;24.868;2024-01-16T04:52:44;10.68;;;6.85;;
6531;SDS011;3299;42.004;24.868;2024-01-16T04:55:10;6.50;;;4.57;;
6531;SDS011;3299;42.004;24.868;2024-01-16T04:57:35;3.58;;;3.17;;
6531;SDS011;3299;42.004;24.868;2024-01-16T05:00:01;5.32;;;4.07;;
6531;SDS011;3299;42.004;24.868;2024-01-16T05:02:26;6.88;;;4.70;;
6531;SDS011;3299;42.004;24.868;2024-01-16T05:04:52;5.35;;;3.67;;
6531;SDS011;3299;42.004;24.868;2024-01-16T05:07:17;4.45;;;3.90;;
6531;SDS011;3299;42.004;24.868;2024-01-16T05:09:45;5.72;;;3.88;;
6531;SDS011;3299;42.004;24.868;2024-01-16T05:12:11;4.75;;;3.78;;
6531;SDS011;3299;42.004;24.868;2024-01-16T05:14:37;4.25;;;3.85;;
6531;SDS011;3299;42.004;24.868;2024-01-16T05:17:02;4.28;;;3.80;;
6531;SDS011;3299;42.004;24.868;2024-01-16T05:19:28;5.82;;;4.90;;
6531;SDS011;3299;42.004;24.868;2024-01-16T05:21:53;38.83;;;20.83;;
6531;SDS011;3299;42.004;24.868;2024-01-16T05:24:19;28.48;;;15.40;;
6531;SDS011;3299;42.004;24.868;2024-01-16T05:26:44;28.33;;;14.00;;
6531;SDS011;3299;42.004;24.868;2024-01-16T05:29:10;14.90;;;8.10;;
6531;SDS011;3299;42.004;24.868;2024-01-16T05:31:40;6.72;;;4.82;;
6531;SDS011;3299;42.004;24.868;2024-01-16T05:34:07;8.38;;;5.18;;
6531;SDS011;3299;42.004;24.868;2024-01-16T05:36:32;6.65;;;5.10;;
6531;SDS011;3299;42.004;24.868;2024-01-16T05:38:58;12.25;;;7.10;;
6531;SDS011;3299;42.004;24.868;2024-01-16T05:41:23;10.15;;;6.93;;
6531;SDS011;3299;42.004;24.868;2024-01-16T05:43:49;9.73;;;7.57;;
6531;SDS011;3299;42.004;24.868;2024-01-16T05:46:14;20.58;;;12.52;;
6531;SDS011;3299;42.004;24.868;2024-01-16T05:48:40;28.25;;;12.90;;
6531;SDS011;3299;42.004;24.868;2024-01-16T05:51:05;18.17;;;9.90;;
6531;SDS011;3299;42.004;24.868;2024-01-16T05:53:30;35.47;;;18.75;;
6531;SDS011;3299;42.004;24.868;2024-01-16T05:55:56;32.63;;;18.85;;
6531;SDS011;3299;42.004;24.868;2024-01-16T05:58:21;35.58;;;21.15;;
6531;SDS011;3299;42.004;24.868;2024-01-16T06:00:47;31.88;;;20.80;;
6531;SDS011;3299;42.004;24.868;2024-01-16T06:03:12;33.03;;;19.25;;
6531;SDS011;3299;42.004;24.868;2024-01-16T06:05:38;119.95;;;48.25;;
6531;SDS011;3299;42.004;24.868;2024-01-16T06:08:04;51.67;;;26.88;;
6531;SDS011;3299;42.004;24.868;2024-01-16T06:10:29;42.78;;;24.65;;
6531;SDS011;3299;42.004;24.868;2024-01-16T06:12:55;43.00;;;24.80;;
6531;SDS011;3299;42.004;24.868;2024-01-16T06:15:20;42.53;;;24.00;;
6531;SDS011;3299;42.004;24.868;2024-01-16T06:17:46;37.55;;;22.42;;
6531;SDS011;3299;42.004;24.868;2024-01-16T06:20:11;34.78;;;21.83;;
6531;SDS011;3299;42.004;24.868;2024-01-16T06:22:37;29.13;;;18.02;;
6531;SDS011;3299;42.004;24.868;2024-01-16T06:25:02;23.83;;;15.15;;
6531;SDS011;3299;42.004;24.868;2024-01-16T06:27:28;10.13;;;7.32;;
6531;SDS011;3299;42.004;24.868;2024-01-16T06:29:53;14.18;;;9.90;;
6531;SDS011;3299;42.004;24.868;2024-01-16T06:32:19;2.53;;;2.33;;
6531;SDS011;3299;42.004;24.868;2024-01-16T06:34:44;3.40;;;2.25;;
6531;SDS011;3299;42.004;24.868;2024-01-16T06:37:09;2.15;;;1.98;;
6531;SDS011;3299;42.004;24.868;2024-01-16T06:39:35;2.53;;;2.33;;
6531;SDS011;3299;42.004;24.868;2024-01-16T06:42:01;3.65;;;2.70;;
6531;SDS011;3299;42.004;24.868;2024-01-16T06:44:29;3.22;;;2.80;;
6531;SDS011;3299;42.004;24.868;2024-01-16T06:46:55;3.38;;;2.92;;
6531;SDS011;3299;42.004;24.868;2024-01-16T06:49:20;9.02;;;4.85;;
6531;SDS011;3299;42.004;24.868;2024-01-16T06:51:46;2.78;;;2.58;;
6531;SDS011;3299;42.004;24.868;2024-01-16T06:54:11;3.00;;;2.80;;
6531;SDS011;3299;42.004;24.868;2024-01-16T06:56:37;2.53;;;2.33;;
6531;SDS011;3299;42.004;24.868;2024-01-16T06:59:02;3.08;;;2.88;;
6531;SDS011;3299;42.004;24.868;2024-01-16T07:01:28;2.97;;;2.30;;
6531;SDS011;3299;42.004;24.868;2024-01-16T07:03:53;2.50;;;2.30;;
6531;SDS011;3299;42.004;24.868;2024-01-16T07:06:19;2.78;;;2.58;;
6531;SDS011;3299;42.004;24.868;2024-01-16T07:08:44;2.42;;;2.22;;
6531;SDS011;3299;42.004;24.868;2024-01-16T07:11:10;29.85;;;9.93;;
6531;SDS011;3299;42.004;24.868;2024-01-16T07:13:38;3.65;;;3.08;;
6531;SDS011;3299;42.004;24.868;2024-01-16T07:16:04;2.97;;;2.70;;
6531;SDS011;3299;42.004;24.868;2024-01-16T07:18:29;2.75;;;2.40;;
6531;SDS011;3299;42.004;24.868;2024-01-16T07:20:55;2.75;;;2.55;;
6531;SDS011;3299;42.004;24.868;2024-01-16T07:23:20;2.97;;;2.53;;
6531;SDS011;3299;42.004;24.868;2024-01-16T07:25:46;2.38;;;2.17;;
6531;SDS011;3299;42.004;24.868;2024-01-16T07:28:11;2.35;;;2.22;;
6531;SDS011;3299;42.004;24.868;2024-01-16T07:30:37;2.47;;;2.30;;
6531;SDS011;3299;42.004;24.868;2024-01-16T07:33:03;2.20;;;2.08;;
6531;SDS011;3299;42.004;24.868;2024-01-16T07:35:29;2.53;;;2.33;;
6531;SDS011;3299;42.004;24.868;2024-01-16T07:37:55;3.72;;;2.15;;
6531;SDS011;3299;42.004;24.868;2024-01-16T07:40:20;2.10;;;2.00;;
6531;SDS011;3299;42.004;24.868;2024-01-16T07:42:45;2.30;;;2.20;;
6531;SDS011;3299;42.004;24.868;2024-01-16T07:45:11;2.28;;;2.15;;
6531;SDS011;3299;42.004;24.868;2024-01-16T07:47:36;2.35;;;2.25;;
6531;SDS011;3299;42.004;24.868;2024-01-16T07:50:02;2.67;;;2.47;;
6531;SDS011;3299;42.004;24.868;2024-01-16T07:52:28;5.60;;;3.63;;
6531;SDS011;3299;42.004;24.868;2024-01-16T07:54:54;2.75;;;2.50;;
6531;SDS011;3299;42.004;24.868;2024-01-16T07:57:19;6.15;;;3.70;;
6531;SDS011;3299;42.004;24.868;2024-01-16T07:59:45;4.57;;;3.72;;
6531;SDS011;3299;42.004;24.868;2024-01-16T08:02:11;3.20;;;2.92;;
6531;SDS011;3299;42.004;24.868;2024-01-16T08:04:37;2.88;;;2.40;;
6531;SDS011;3299;42.004;24.868;2024-01-16T08:07:02;2.10;;;2.00;;
6531;SDS011;3299;42.004;24.868;2024-01-16T08:09:28;1.75;;;1.65;;
6531;SDS011;3299;42.004;24.868;2024-01-16T08:11:54;3.63;;;3.10;;
6531;SDS011;3299;42.004;24.868;2024-01-16T08:14:19;3.03;;;2.80;;
6531;SDS011;3299;42.004;24.868;2024-01-16T08:16:45;4.20;;;3.25;;
6531;SDS011;3299;42.004;24.868;2024-01-16T08:19:10;5.22;;;3.10;;
6531;SDS011;3299;42.004;24.868;2024-01-16T08:21:35;2.97;;;2.67;;
6531;SDS011;3299;42.004;24.868;2024-01-16T08:24:01;2.33;;;2.22;;
6531;SDS011;3299;42.004;24.868;2024-01-16T08:26:27;2.10;;;2.00;;
6531;SDS011;3299;42.004;24.868;2024-01-16T08:28:53;1.75;;;1.67;;
6531;SDS011;3299;42.004;24.868;2024-01-16T08:31:19;2.00;;;1.90;;
6531;SDS011;3299;42.004;24.868;2024-01-16T08:33:44;1.98;;;1.63;;
6531;SDS011;3299;42.004;24.868;2024-01-16T08:36:10;2.97;;;2.17;;
6531;SDS011;3299;42.004;24.868;2024-01-16T08:38:36;1.92;;;1.83;;
6531;SDS011;3299;42.004;24.868;2024-01-16T08:41:01;1.90;;;1.80;;
6531;SDS011;3299;42.004;24.868;2024-01-16T08:43:31;1.77;;;1.67;;
6531;SDS011;3299;42.004;24.868;2024-01-16T08:45:56;1.88;;;1.77;;
6531;SDS011;3299;42.004;24.868;2024-01-16T08:48:22;2.47;;;2.28;;
6531;SDS011;3299;42.004;24.868;2024-01-16T08:50:47;1.80;;;1.70;;
6531;SDS011;3299;42.004;24.868;2024-01-16T08:53:13;1.95;;;1.85;;
6531;SDS011;3299;42.004;24.868;2024-01-16T08:55:38;2.55;;;1.98;;
6531;SDS011;3299;42.004;24.868;2024-01-16T08:58:03;1.73;;;1.65;;
6531;SDS011;3299;42.004;24.868;2024-01-16T09:00:29;3.53;;;2.30;;
6531;SDS011;3299;42.004;24.868;2024-01-16T09:02:54;3.20;;;2.90;;
6531;SDS011;3299;42.004;24.868;2024-01-16T09:05:20;3.30;;;3.10;;
6531;SDS011;3299;42.004;24.868;2024-01-16T09:07:50;2.50;;;2.10;;
6531;SDS011;3299;42.004;24.868;2024-01-16T09:10:16;3.20;;;3.00;;
6531;SDS011;3299;42.004;24.868;2024-01-16T09:12:42;1.83;;;1.73;;
6531;SDS011;3299;42.004;24.868;2024-01-16T09:15:07;2.65;;;2.45;;
6531;SDS011;3299;42.004;24.868;2024-01-16T09:17:33;2.15;;;1.70;;
6531;SDS011;3299;42.004;24.868;2024-01-16T09:19:59;1.23;;;1.23;;
6531;SDS011;3299;42.004;24.868;2024-01-16T09:22:24;1.77;;;1.42;;
6531;SDS011;3299;42.004;24.868;2024-01-16T09:24:50;1.30;;;1.30;;
6531;SDS011;3299;42.004;24.868;2024-01-16T09:27:15;1.33;;;1.33;;
6531;SDS011;3299;42.004;24.868;2024-01-16T09:29:41;1.50;;;1.40;;
6531;SDS011;3299;42.004;24.868;2024-01-16T09:32:07;1.90;;;1.70;;
6531;SDS011;3299;42.004;24.868;2024-01-16T09:34:32;1.55;;;1.45;;
6531;SDS011;3299;42.004;24.868;2024-01-16T09:36:58;1.02;;;1.02;;
6531;SDS011;3299;42.004;24.868;2024-01-16T09:39:26;1.13;;;1.10;;
6531;SDS011;3299;42.004;24.868;2024-01-16T09:41:51;1.60;;;1.50;;
6531;SDS011;3299;42.004;24.868;2024-01-16T09:44:17;1.33;;;1.27;;
6531;SDS011;3299;42.004;24.868;2024-01-16T09:46:44;1.30;;;1.30;;
6531;SDS011;3299;42.004;24.868;2024-01-16T09:49:14;1.00;;;1.00;;
6531;SDS011;3299;42.004;24.868;2024-01-16T09:51:42;1.30;;;1.27;;
6531;SDS011;3299;42.004;24.868;2024-01-16T09:54:08;1.15;;;1.15;;
6531;SDS011;3299;42.004;24.868;2024-01-16T09:56:34;1.27;;;1.27;;
6531;SDS011;3299;42.004;24.868;2024-01-16T09:59:04;1.40;;;1.40;;
6531;SDS011;3299;42.004;24.868;2024-01-16T10:01:31;3.20;;;2.28;;
6531;SDS011;3299;42.004;24.868;2024-01-16T10:03:58;1.95;;;1.85;;
6531;SDS011;3299;42.004;24.868;2024-01-16T10:06:24;1.60;;;1.50;;
6531;SDS011;3299;42.004;24.868;2024-01-16T10:08:52;1.50;;;1.40;;
6531;SDS011;3299;42.004;24.868;2024-01-16T10:11:18;1.10;;;1.10;;
6531;SDS011;3299;42.004;24.868;2024-01-16T10:13:46;2.13;;;1.60;;
6531;SDS011;3299;42.004;24.868;2024-01-16T10:16:13;1.30;;;1.10;;
6531;SDS011;3299;42.004;24.868;2024-01-16T10:18:38;1.00;;;1.00;;
6531;SDS011;3299;42.004;24.868;2024-01-16T10:21:04;1.10;;;1.10;;
6531;SDS011;3299;42.004;24.868;2024-01-16T10:23:30;1.00;;;0.90;;
6531;SDS011;3299;42.004;24.868;2024-01-16T10:28:31;1.00;;;1.00;;
6531;SDS011;3299;42.004;24.868;2024-01-16T10:31:06;0.90;;;0.90;;
6531;SDS011;3299;42.004;24.868;2024-01-16T10:33:33;1.05;;;1.00;;
6531;SDS011;3299;42.004;24.868;2024-01-16T10:38:37;1.20;;;1.20;;
6531;SDS011;3299;42.004;24.868;2024-01-16T10:41:04;3.42;;;1.35;;
6531;SDS011;3299;42.004;24.868;2024-01-16T10:43:31;1.85;;;1.20;;
6531;SDS011;3299;42.004;24.868;2024-01-16T10:48:38;1.13;;;1.00;;
6531;SDS011;3299;42.004;24.868;2024-01-16T10:51:09;1.20;;;1.20;;
6531;SDS011;3299;42.004;24.868;2024-01-16T10:53:44;1.50;;;1.45;;
6531;SDS011;3299;42.004;24.868;2024-01-16T10:56:11;1.25;;;1.25;;
6531;SDS011;3299;42.004;24.868;2024-01-16T10:58:41;1.13;;;1.13;;
6531;SDS011;3299;42.004;24.868;2024-01-16T11:01:10;0.90;;;0.90;;
6531;SDS011;3299;42.004;24.868;2024-01-16T11:03:49;2.05;;;1.60;;
6531;SDS011;3299;42.004;24.868;2024-01-16T11:06:16;1.35;;;1.25;;
6531;SDS011;3299;42.004;24.868;2024-01-16T11:08:42;1.05;;;1.05;;
6531;SDS011;3299;42.004;24.868;2024-01-16T11:11:11;1.20;;;1.10;;
6531;SDS011;3299;42.004;24.868;2024-01-16T11:13:39;1.00;;;1.00;;
6531;SDS011;3299;42.004;24.868;2024-01-16T11:16:06;1.77;;;1.67;;
6531;SDS011;3299;42.004;24.868;2024-01-16T11:18:35;0.80;;;0.80;;
6531;SDS011;3299;42.004;24.868;2024-01-16T11:21:01;1.15;;;1.13;;
6531;SDS011;3299;42.004;24.868;2024-01-16T11:23:29;2.17;;;1.98;;
6531;SDS011;3299;42.004;24.868;2024-01-16T11:25:55;1.95;;;1.83;;
6531;SDS011;3299;42.004;24.868;2024-01-16T11:28:20;1.80;;;1.70;;
6531;SDS011;3299;42.004;24.868;2024-01-16T11:30:53;1.95;;;1.80;;
6531;SDS011;3299;42.004;24.868;2024-01-16T11:35:56;0.90;;;0.90;;
6531;SDS011;3299;42.004;24.868;2024-01-16T11:38:21;1.38;;;1.35;;
6531;SDS011;3299;42.004;24.868;2024-01-16T11:40:51;1.00;;;1.00;;
6531;SDS011;3299;42.004;24.868;2024-01-16T11:45:58;1.00;;;1.00;;
6531;SDS011;3299;42.004;24.868;2024-01-16T11:48:24;1.00;;;1.00;;
6531;SDS011;3299;42.004;24.868;2024-01-16T11:50:50;0.90;;;0.90;;
6531;SDS011;3299;42.004;24.868;2024-01-16T11:53:36;0.90;;;0.90;;
6531;SDS011;3299;42.004;24.868;2024-01-16T12:01:52;1.50;;;1.40;;
6531;SDS011;3299;42.004;24.868;2024-01-16T12:04:22;1.23;;;1.10;;
6531;SDS011;3299;42.004;24.868;2024-01-16T12:06:59;1.30;;;1.05;;
6531;SDS011;3299;42.004;24.868;2024-01-16T12:09:26;3.15;;;1.65;;
6531;SDS011;3299;42.004;24.868;2024-01-16T12:11:55;1.40;;;1.30;;
6531;SDS011;3299;42.004;24.868;2024-01-16T12:14:23;1.08;;;1.08;;
6531;SDS011;3299;42.004;24.868;2024-01-16T12:16:51;1.00;;;1.00;;
6531;SDS011;3299;42.004;24.868;2024-01-16T12:19:17;0.90;;;0.90;;
6531;SDS011;3299;42.004;24.868;2024-01-16T12:21:43;1.23;;;1.23;;
6531;SDS011;3299;42.004;24.868;2024-01-16T12:24:10;1.10;;;1.10;;
6531;SDS011;3299;42.004;24.868;2024-01-16T12:26:36;1.65;;;1.55;;
6531;SDS011;3299;42.004;24.868;2024-01-16T12:29:02;0.90;;;0.90;;
6531;SDS011;3299;42.004;24.868;2024-01-16T12:31:27;1.05;;;1.00;;
6531;SDS011;3299;42.004;24.868;2024-01-16T12:34:14;1.20;;;1.10;;
6531;SDS011;3299;42.004;24.868;2024-01-16T12:36:39;1.48;;;1.40;;
6531;SDS011;3299;42.004;24.868;2024-01-16T12:39:05;1.48;;;1.38;;
6531;SDS011;3299;42.004;24.868;2024-01-16T12:41:39;1.20;;;1.20;;
6531;SDS011;3299;42.004;24.868;2024-01-16T12:44:10;3.50;;;2.50;;
6531;SDS011;3299;42.004;24.868;2024-01-16T12:46:36;1.52;;;1.27;;
6531;SDS011;3299;42.004;24.868;2024-01-16T12:49:02;1.50;;;1.40;;
6531;SDS011;3299;42.004;24.868;2024-01-16T12:51:28;1.85;;;1.75;;
6531;SDS011;3299;42.004;24.868;2024-01-16T12:53:53;2.83;;;2.42;;
6531;SDS011;3299;42.004;24.868;2024-01-16T12:56:19;2.33;;;2.15;;
6531;SDS011;3299;42.004;24.868;2024-01-16T12:58:45;5.88;;;3.08;;
6531;SDS011;3299;42.004;24.868;2024-01-16T13:02:11;1.60;;;1.50;;
6531;SDS011;3299;42.004;24.868;2024-01-16T13:04:07;1.30;;;1.30;;
6531;SDS011;3299;42.004;24.868;2024-01-16T13:06:33;1.88;;;1.77;;
6531;SDS011;3299;42.004;24.868;2024-01-16T13:11:44;0.73;;;0.73;;
6531;SDS011;3299;42.004;24.868;2024-01-16T13:14:14;0.80;;;0.80;;
6531;SDS011;3299;42.004;24.868;2024-01-16T13:16:39;1.70;;;1.60;;
6531;SDS011;3299;42.004;24.868;2024-01-16T13:19:05;1.70;;;1.60;;
6531;SDS011;3299;42.004;24.868;2024-01-16T13:21:34;1.40;;;1.30;;
6531;SDS011;3299;42.004;24.868;2024-01-16T13:24:02;1.52;;;1.42;;
6531;SDS011;3299;42.004;24.868;2024-01-16T13:26:30;1.00;;;1.00;;
6531;SDS011;3299;42.004;24.868;2024-01-16T13:28:57;1.33;;;1.30;;
6531;SDS011;3299;42.004;24.868;2024-01-16T13:31:22;0.88;;;0.88;;
6531;SDS011;3299;42.004;24.868;2024-01-16T13:33:48;1.13;;;1.10;;
6531;SDS011;3299;42.004;24.868;2024-01-16T13:36:13;2.20;;;2.08;;
6531;SDS011;3299;42.004;24.868;2024-01-16T13:38:38;1.20;;;1.20;;
6531;SDS011;3299;42.004;24.868;2024-01-16T13:41:04;2.45;;;2.15;;
6531;SDS011;3299;42.004;24.868;2024-01-16T13:43:29;3.78;;;2.80;;
6531;SDS011;3299;42.004;24.868;2024-01-16T13:45:55;2.33;;;2.20;;
6531;SDS011;3299;42.004;24.868;2024-01-16T13:48:20;1.80;;;1.70;;
6531;SDS011;3299;42.004;24.868;2024-01-16T13:50:46;3.53;;;3.13;;
6531;SDS011;3299;42.004;24.868;2024-01-16T13:53:12;1.35;;;1.30;;
6531;SDS011;3299;42.004;24.868;2024-01-16T13:55:39;2.63;;;2.10;;
6531;SDS011;3299;42.004;24.868;2024-01-16T13:58:06;1.20;;;1.17;;
6531;SDS011;3299;42.004;24.868;2024-01-16T14:00:31;1.45;;;1.35;;
6531;SDS011;3299;42.004;24.868;2024-01-16T14:02:57;1.25;;;1.25;;
6531;SDS011;3299;42.004;24.868;2024-01-16T14:05:22;0.93;;;0.93;;
6531;SDS011;3299;42.004;24.868;2024-01-16T14:07:49;1.20;;;1.10;;
6531;SDS011;3299;42.004;24.868;2024-01-16T14:10:17;1.10;;;1.10;;
6531;SDS011;3299;42.004;24.868;2024-01-16T14:12:44;2.53;;;2.08;;
6531;SDS011;3299;42.004;24.868;2024-01-16T14:15:10;2.30;;;2.15;;
6531;SDS011;3299;42.004;24.868;2024-01-16T14:17:52;1.17;;;1.17;;
6531;SDS011;3299;42.004;24.868;2024-01-16T14:20:19;1.58;;;1.48;;
6531;SDS011;3299;42.004;24.868;2024-01-16T14:22:48;2.80;;;2.50;;
6531;SDS011;3299;42.004;24.868;2024-01-16T14:25:14;1.63;;;1.55;;
6531;SDS011;3299;42.004;24.868;2024-01-16T14:27:44;7.82;;;4.95;;
6531;SDS011;3299;42.004;24.868;2024-01-16T14:30:11;6.80;;;4.97;;
6531;SDS011;3299;42.004;24.868;2024-01-16T14:32:39;1.55;;;1.45;;
6531;SDS011;3299;42.004;24.868;2024-01-16T14:35:06;6.90;;;4.30;;
6531;SDS011;3299;42.004;24.868;2024-01-16T14:37:33;1.90;;;1.80;;
6531;SDS011;3299;42.004;24.868;2024-01-16T14:39:59;2.55;;;2.33;;
6531;SDS011;3299;42.004;24.868;2024-01-16T14:42:28;4.60;;;3.35;;
6531;SDS011;3299;42.004;24.868;2024-01-16T14:44:54;1.60;;;1.50;;
6531;SDS011;3299;42.004;24.868;2024-01-16T14:47:20;1.90;;;1.67;;
6531;SDS011;3299;42.004;24.868;2024-01-16T14:49:46;3.97;;;3.15;;
6531;SDS011;3299;42.004;24.868;2024-01-16T14:52:11;1.52;;;1.42;;
6531;SDS011;3299;42.004;24.868;2024-01-16T14:54:37;1.33;;;1.23;;
6531;SDS011;3299;42.004;24.868;2024-01-16T14:57:03;1.13;;;1.13;;
6531;SDS011;3299;42.004;24.868;2024-01-16T14:59:30;0.85;;;0.85;;
6531;SDS011;3299;42.004;24.868;2024-01-16T15:01:55;1.30;;;1.30;;
6531;SDS011;3299;42.004;24.868;2024-01-16T15:04:20;1.27;;;1.27;;
6531;SDS011;3299;42.004;24.868;2024-01-16T15:06:46;1.00;;;1.00;;
6531;SDS011;3299;42.004;24.868;2024-01-16T15:09:12;1.27;;;1.20;;